Pepperell, MA

10:21 PM EDT on October 22, 2014 (GMT -0400)
North Groton | Change Station
CLOSE
Current Station
Personal Weather Station
Location: Groton, MA
Elevation: 260 ft
Nearby Weather Stations

Elev 260 ft 42.65 °N, 71.56 °W | Updated 11 minutes ago

Overcast
Overcast
47.5 °F
Feels Like 48 °F
N
3.0
Wind Variable Wind from SE
Gusts 7.0 mph

Today
High -- | Low -- °F
--% Chance of Precip.
Yesterday
High -- | Low -- °F
Precip. -- in
7:07 AM 5:53 PM
Waning Crescent, 1% visible
Pressure 30.65 in
Visibility 8.0 miles
Clouds Overcast 1300 ft
Windchill 48 °F
Dew Point 47 °F
Humidity 98%
Rainfall 0.25 in
Snow Depth Not available.
UV 0 out of 12
Pollen .30 out of 12
Air Quality Not available.
Flu Activity No Activity
METAR KASH 230151Z 03011G17KT 8SM OVC013 09/08 A2991 RMK AO2 T00880083 RAE47 P0000 SLP379 $

More Conditions Fewer Conditions

Pressure 30.65 in
Visibility 8.0 miles
Clouds Overcast 1300 ft
Windchill 48 °F
Dew Point 47 °F
Humidity 98%
Rainfall 0.25 in
Snow Depth Not available.
UV 0 out of 12
Pollen .30 out of 12
Air Quality Not available.
Flu Activity No Activity
METAR KASH 230151Z 03011G17KT 8SM OVC013 09/08 A2991 RMK AO2 T00880083 RAE47 P0000 SLP379 $

More Conditions Fewer Conditions

10-Day Weather Forecast

Almanac

Astronomy

Oct. 22, 2014 Rise Set
Actual Time 7:07 AM EDT 5:53 PM EDT
Civil Twilight 6:39 AM EDT 6:21 PM EDT
Nautical Twilight 6:06 AM EDT 6:54 PM EDT
Astronomical Twilight 5:33 AM EDT 7:27 PM EDT
Moon 5:44 AM EDT (10/22) 5:19 PM EDT (10/22)
Length of Visible Light 11h 42m
Length of Day
10h 45m
Tomorrow will be 2m 42s shorter.
Waning Crescent, 1% of the Moon is Illuminated
Today
Waning Crescent
Oct 23
New
Oct 30
First Quarter
Nov 6
Full
Nov 14
Last Quarter

Today's Extremes

State Highs State Lows

Community

WunderPhotos

Upload Photos

1,764,109 photos uploaded!

Nearby

Air Quality

  Air Quality AQ Index Pollutant
Wednesday Good
PM2.5
Thursday Good
PM2.5

Snow Depth

Station Depth Elevation
No new snow has been reported.

Earthquake Activity

City Distance Mag. Time & Date
No recent earthquake activity has been reported nearby.
Minimum magnitude displayed is 2.5.

Coastal Water Temperatures

Place Temperature
No Stations Reporting

Nearby Weather Stations